Jaffrey, New Hampshire
Current Conditions -  °F | °C
As of 10:52 AM on Saturday 25 Oct 2014 (Local Time) from KAFN Reporting Station
Clear Clear  
Wind Chill: 53°   Ceiling: Unl
Heat Index: 53°   Visibility: 10mi
Dew Point: 37°   Wind: 7mph
Humidity: 55%   Direction: 280°W
Pressure: 29.73"   Gusts: NA
Location:  42.81°N, 72.02°W
Report Text: KAFN 251452Z AUTO 28006KT 10SM CLR 12/03 A2973 RMK AO2 SLP074 T01170028 58012
Loading
Personal Weather Stations






























Interactive Weather Map New forecast layout! Learn more

10-Day Weather Forecast

Advertisements
Track Severe Weather on mobile